sensor_id;sensor_type;location;lat;lon;timestamp;P1;durP1;ratioP1;P2;durP2;ratioP2
10653;SDS011;5375;51.250;6.776;2024-01-10T00:00:42;3.17;;;2.20;;
10653;SDS011;5375;51.250;6.776;2024-01-10T00:03:08;3.50;;;2.23;;
10653;SDS011;5375;51.250;6.776;2024-01-10T00:05:34;4.00;;;2.37;;
10653;SDS011;5375;51.250;6.776;2024-01-10T00:08:00;3.70;;;2.30;;
10653;SDS011;5375;51.250;6.776;2024-01-10T00:10:26;3.27;;;2.43;;
10653;SDS011;5375;51.250;6.776;2024-01-10T00:12:52;2.80;;;2.40;;
10653;SDS011;5375;51.250;6.776;2024-01-10T00:15:19;4.17;;;2.47;;
10653;SDS011;5375;51.250;6.776;2024-01-10T00:17:45;3.27;;;2.60;;
10653;SDS011;5375;51.250;6.776;2024-01-10T00:20:11;3.77;;;2.70;;
10653;SDS011;5375;51.250;6.776;2024-01-10T00:22:37;3.67;;;2.20;;
10653;SDS011;5375;51.250;6.776;2024-01-10T00:25:03;2.93;;;2.13;;
10653;SDS011;5375;51.250;6.776;2024-01-10T00:27:29;3.53;;;2.30;;
10653;SDS011;5375;51.250;6.776;2024-01-10T00:29:55;4.13;;;2.50;;
10653;SDS011;5375;51.250;6.776;2024-01-10T00:32:22;3.03;;;2.40;;
10653;SDS011;5375;51.250;6.776;2024-01-10T00:34:48;3.67;;;2.70;;
10653;SDS011;5375;51.250;6.776;2024-01-10T00:37:14;3.40;;;2.57;;
10653;SDS011;5375;51.250;6.776;2024-01-10T00:39:40;3.67;;;2.40;;
10653;SDS011;5375;51.250;6.776;2024-01-10T00:42:06;2.73;;;2.30;;
10653;SDS011;5375;51.250;6.776;2024-01-10T00:44:32;3.17;;;2.33;;
10653;SDS011;5375;51.250;6.776;2024-01-10T00:46:57;3.97;;;2.50;;
10653;SDS011;5375;51.250;6.776;2024-01-10T00:49:23;4.00;;;2.50;;
10653;SDS011;5375;51.250;6.776;2024-01-10T00:51:49;3.00;;;2.33;;
10653;SDS011;5375;51.250;6.776;2024-01-10T00:54:16;4.43;;;2.50;;
10653;SDS011;5375;51.250;6.776;2024-01-10T00:56:42;3.87;;;2.43;;
10653;SDS011;5375;51.250;6.776;2024-01-10T00:59:08;3.27;;;2.63;;
10653;SDS011;5375;51.250;6.776;2024-01-10T01:01:34;4.30;;;2.40;;
10653;SDS011;5375;51.250;6.776;2024-01-10T01:04:00;4.10;;;2.70;;
10653;SDS011;5375;51.250;6.776;2024-01-10T01:06:26;4.13;;;2.70;;
10653;SDS011;5375;51.250;6.776;2024-01-10T01:08:52;3.87;;;2.70;;
10653;SDS011;5375;51.250;6.776;2024-01-10T01:11:19;3.73;;;2.43;;
10653;SDS011;5375;51.250;6.776;2024-01-10T01:13:45;3.63;;;2.60;;
10653;SDS011;5375;51.250;6.776;2024-01-10T01:16:11;3.33;;;2.40;;
10653;SDS011;5375;51.250;6.776;2024-01-10T01:18:37;4.83;;;2.90;;
10653;SDS011;5375;51.250;6.776;2024-01-10T01:21:06;3.10;;;2.30;;
10653;SDS011;5375;51.250;6.776;2024-01-10T01:23:32;4.20;;;2.50;;
10653;SDS011;5375;51.250;6.776;2024-01-10T01:25:58;4.20;;;2.40;;
10653;SDS011;5375;51.250;6.776;2024-01-10T01:28:24;3.87;;;2.50;;
10653;SDS011;5375;51.250;6.776;2024-01-10T01:30:50;4.23;;;2.77;;
10653;SDS011;5375;51.250;6.776;2024-01-10T01:33:16;3.90;;;2.57;;
10653;SDS011;5375;51.250;6.776;2024-01-10T01:35:42;3.47;;;2.50;;
10653;SDS011;5375;51.250;6.776;2024-01-10T01:38:11;3.13;;;2.50;;
10653;SDS011;5375;51.250;6.776;2024-01-10T01:40:37;3.67;;;2.43;;
10653;SDS011;5375;51.250;6.776;2024-01-10T01:43:23;2.40;;;2.13;;
10653;SDS011;5375;51.250;6.776;2024-01-10T01:45:50;3.37;;;2.17;;
10653;SDS011;5375;51.250;6.776;2024-01-10T01:48:17;4.00;;;2.50;;
10653;SDS011;5375;51.250;6.776;2024-01-10T01:50:45;3.60;;;2.60;;
10653;SDS011;5375;51.250;6.776;2024-01-10T01:53:13;2.87;;;2.40;;
10653;SDS011;5375;51.250;6.776;2024-01-10T01:55:40;4.33;;;2.97;;
10653;SDS011;5375;51.250;6.776;2024-01-10T01:58:06;4.90;;;2.30;;
10653;SDS011;5375;51.250;6.776;2024-01-10T02:00:32;4.77;;;2.53;;
10653;SDS011;5375;51.250;6.776;2024-01-10T02:02:59;3.20;;;2.90;;
10653;SDS011;5375;51.250;6.776;2024-01-10T02:05:25;2.77;;;2.37;;
10653;SDS011;5375;51.250;6.776;2024-01-10T02:07:51;3.90;;;2.40;;
10653;SDS011;5375;51.250;6.776;2024-01-10T02:10:18;3.43;;;2.53;;
10653;SDS011;5375;51.250;6.776;2024-01-10T02:12:45;4.73;;;2.70;;
10653;SDS011;5375;51.250;6.776;2024-01-10T02:15:11;3.33;;;2.50;;
10653;SDS011;5375;51.250;6.776;2024-01-10T02:17:37;4.30;;;3.00;;
10653;SDS011;5375;51.250;6.776;2024-01-10T02:22:38;3.30;;;2.80;;
10653;SDS011;5375;51.250;6.776;2024-01-10T02:25:10;3.67;;;2.40;;
10653;SDS011;5375;51.250;6.776;2024-01-10T02:27:37;3.47;;;2.50;;
10653;SDS011;5375;51.250;6.776;2024-01-10T02:30:03;3.60;;;2.37;;
10653;SDS011;5375;51.250;6.776;2024-01-10T02:32:30;4.20;;;2.50;;
10653;SDS011;5375;51.250;6.776;2024-01-10T02:34:56;4.30;;;3.07;;
10653;SDS011;5375;51.250;6.776;2024-01-10T02:37:23;4.60;;;2.23;;
10653;SDS011;5375;51.250;6.776;2024-01-10T02:39:49;3.87;;;2.50;;
10653;SDS011;5375;51.250;6.776;2024-01-10T02:42:15;3.30;;;2.57;;
10653;SDS011;5375;51.250;6.776;2024-01-10T02:44:44;3.27;;;2.50;;
10653;SDS011;5375;51.250;6.776;2024-01-10T02:47:10;3.50;;;2.53;;
10653;SDS011;5375;51.250;6.776;2024-01-10T02:49:37;3.90;;;2.50;;
10653;SDS011;5375;51.250;6.776;2024-01-10T02:52:03;3.00;;;2.33;;
10653;SDS011;5375;51.250;6.776;2024-01-10T02:54:29;4.23;;;2.47;;
10653;SDS011;5375;51.250;6.776;2024-01-10T02:56:55;4.40;;;2.47;;
10653;SDS011;5375;51.250;6.776;2024-01-10T02:59:21;2.73;;;2.13;;
10653;SDS011;5375;51.250;6.776;2024-01-10T03:01:47;3.70;;;2.27;;
10653;SDS011;5375;51.250;6.776;2024-01-10T03:04:13;6.13;;;2.67;;
10653;SDS011;5375;51.250;6.776;2024-01-10T03:06:39;3.77;;;2.37;;
10653;SDS011;5375;51.250;6.776;2024-01-10T03:09:05;5.53;;;2.27;;
10653;SDS011;5375;51.250;6.776;2024-01-10T03:11:31;4.00;;;2.40;;
10653;SDS011;5375;51.250;6.776;2024-01-10T03:14:17;3.83;;;2.33;;
10653;SDS011;5375;51.250;6.776;2024-01-10T03:16:43;9.20;;;2.50;;
10653;SDS011;5375;51.250;6.776;2024-01-10T03:19:09;3.03;;;2.03;;
10653;SDS011;5375;51.250;6.776;2024-01-10T03:21:35;4.03;;;2.20;;
10653;SDS011;5375;51.250;6.776;2024-01-10T03:24:01;3.20;;;2.13;;
10653;SDS011;5375;51.250;6.776;2024-01-10T03:26:27;2.80;;;2.00;;
10653;SDS011;5375;51.250;6.776;2024-01-10T03:28:55;3.43;;;2.30;;
10653;SDS011;5375;51.250;6.776;2024-01-10T03:31:22;3.00;;;2.30;;
10653;SDS011;5375;51.250;6.776;2024-01-10T03:33:48;3.13;;;2.17;;
10653;SDS011;5375;51.250;6.776;2024-01-10T03:36:16;2.83;;;2.27;;
10653;SDS011;5375;51.250;6.776;2024-01-10T03:38:43;3.37;;;2.30;;
10653;SDS011;5375;51.250;6.776;2024-01-10T03:41:16;3.07;;;2.30;;
10653;SDS011;5375;51.250;6.776;2024-01-10T03:43:43;2.97;;;2.30;;
10653;SDS011;5375;51.250;6.776;2024-01-10T03:46:09;3.87;;;2.07;;
10653;SDS011;5375;51.250;6.776;2024-01-10T03:48:35;3.63;;;2.07;;
10653;SDS011;5375;51.250;6.776;2024-01-10T03:51:04;3.87;;;2.00;;
10653;SDS011;5375;51.250;6.776;2024-01-10T03:53:30;2.80;;;2.00;;
10653;SDS011;5375;51.250;6.776;2024-01-10T03:55:56;3.77;;;2.20;;
10653;SDS011;5375;51.250;6.776;2024-01-10T03:58:23;3.07;;;2.10;;
10653;SDS011;5375;51.250;6.776;2024-01-10T04:00:49;3.27;;;2.00;;
10653;SDS011;5375;51.250;6.776;2024-01-10T04:03:15;3.53;;;2.27;;
10653;SDS011;5375;51.250;6.776;2024-01-10T04:05:41;3.73;;;2.10;;
10653;SDS011;5375;51.250;6.776;2024-01-10T04:08:10;6.13;;;2.23;;
10653;SDS011;5375;51.250;6.776;2024-01-10T04:10:36;4.63;;;2.30;;
10653;SDS011;5375;51.250;6.776;2024-01-10T04:13:02;6.07;;;2.00;;
10653;SDS011;5375;51.250;6.776;2024-01-10T04:15:28;3.07;;;2.13;;
10653;SDS011;5375;51.250;6.776;2024-01-10T04:17:54;3.13;;;2.60;;
10653;SDS011;5375;51.250;6.776;2024-01-10T04:20:20;3.47;;;2.40;;
10653;SDS011;5375;51.250;6.776;2024-01-10T04:22:46;3.50;;;2.50;;
10653;SDS011;5375;51.250;6.776;2024-01-10T04:25:12;4.20;;;2.60;;
10653;SDS011;5375;51.250;6.776;2024-01-10T04:27:38;3.70;;;2.47;;
10653;SDS011;5375;51.250;6.776;2024-01-10T04:30:07;4.33;;;2.50;;
10653;SDS011;5375;51.250;6.776;2024-01-10T04:32:33;3.70;;;2.03;;
10653;SDS011;5375;51.250;6.776;2024-01-10T04:35:00;3.70;;;2.47;;
10653;SDS011;5375;51.250;6.776;2024-01-10T04:37:26;4.57;;;3.03;;
10653;SDS011;5375;51.250;6.776;2024-01-10T04:39:51;2.80;;;2.30;;
10653;SDS011;5375;51.250;6.776;2024-01-10T04:42:17;4.33;;;2.50;;
10653;SDS011;5375;51.250;6.776;2024-01-10T04:44:43;3.83;;;2.80;;
10653;SDS011;5375;51.250;6.776;2024-01-10T04:47:09;4.03;;;2.63;;
10653;SDS011;5375;51.250;6.776;2024-01-10T04:49:35;4.20;;;2.87;;
10653;SDS011;5375;51.250;6.776;2024-01-10T04:52:01;3.20;;;2.33;;
10653;SDS011;5375;51.250;6.776;2024-01-10T04:54:27;3.47;;;2.47;;
10653;SDS011;5375;51.250;6.776;2024-01-10T04:56:53;4.07;;;2.57;;
10653;SDS011;5375;51.250;6.776;2024-01-10T04:59:19;2.80;;;2.00;;
10653;SDS011;5375;51.250;6.776;2024-01-10T05:01:45;3.97;;;2.70;;
10653;SDS011;5375;51.250;6.776;2024-01-10T05:04:11;4.67;;;2.80;;
10653;SDS011;5375;51.250;6.776;2024-01-10T05:06:37;4.03;;;2.20;;
10653;SDS011;5375;51.250;6.776;2024-01-10T05:09:03;4.07;;;2.50;;
10653;SDS011;5375;51.250;6.776;2024-01-10T05:11:29;4.93;;;2.47;;
10653;SDS011;5375;51.250;6.776;2024-01-10T05:13:55;2.97;;;2.30;;
10653;SDS011;5375;51.250;6.776;2024-01-10T05:16:22;3.17;;;2.20;;
10653;SDS011;5375;51.250;6.776;2024-01-10T05:18:48;3.80;;;2.60;;
10653;SDS011;5375;51.250;6.776;2024-01-10T05:21:17;4.27;;;2.20;;
10653;SDS011;5375;51.250;6.776;2024-01-10T05:23:43;5.37;;;2.37;;
10653;SDS011;5375;51.250;6.776;2024-01-10T05:26:09;4.03;;;2.47;;
10653;SDS011;5375;51.250;6.776;2024-01-10T05:28:36;4.77;;;2.60;;
10653;SDS011;5375;51.250;6.776;2024-01-10T05:31:03;5.53;;;2.63;;
10653;SDS011;5375;51.250;6.776;2024-01-10T05:33:29;3.53;;;2.37;;
10653;SDS011;5375;51.250;6.776;2024-01-10T05:35:56;4.23;;;2.43;;
10653;SDS011;5375;51.250;6.776;2024-01-10T05:38:23;4.17;;;2.33;;
10653;SDS011;5375;51.250;6.776;2024-01-10T05:40:49;4.47;;;2.50;;
10653;SDS011;5375;51.250;6.776;2024-01-10T05:43:16;3.77;;;2.40;;
10653;SDS011;5375;51.250;6.776;2024-01-10T05:45:46;4.10;;;2.57;;
10653;SDS011;5375;51.250;6.776;2024-01-10T05:48:13;3.67;;;2.60;;
10653;SDS011;5375;51.250;6.776;2024-01-10T05:50:39;4.60;;;2.80;;
10653;SDS011;5375;51.250;6.776;2024-01-10T05:53:05;4.20;;;2.50;;
10653;SDS011;5375;51.250;6.776;2024-01-10T05:55:31;4.17;;;2.60;;
10653;SDS011;5375;51.250;6.776;2024-01-10T05:57:57;5.20;;;3.10;;
10653;SDS011;5375;51.250;6.776;2024-01-10T06:00:23;4.10;;;2.63;;
10653;SDS011;5375;51.250;6.776;2024-01-10T06:02:48;3.20;;;2.40;;
10653;SDS011;5375;51.250;6.776;2024-01-10T06:05:14;3.17;;;2.40;;
10653;SDS011;5375;51.250;6.776;2024-01-10T06:07:40;3.47;;;2.27;;
10653;SDS011;5375;51.250;6.776;2024-01-10T06:10:07;4.73;;;2.90;;
10653;SDS011;5375;51.250;6.776;2024-01-10T06:12:33;4.87;;;2.83;;
10653;SDS011;5375;51.250;6.776;2024-01-10T06:14:59;4.30;;;2.63;;
10653;SDS011;5375;51.250;6.776;2024-01-10T06:17:25;2.60;;;2.40;;
10653;SDS011;5375;51.250;6.776;2024-01-10T06:19:51;3.80;;;2.40;;
10653;SDS011;5375;51.250;6.776;2024-01-10T06:22:17;4.07;;;2.60;;
10653;SDS011;5375;51.250;6.776;2024-01-10T06:24:43;4.23;;;2.80;;
10653;SDS011;5375;51.250;6.776;2024-01-10T06:27:09;5.67;;;2.77;;
10653;SDS011;5375;51.250;6.776;2024-01-10T06:29:36;4.27;;;2.60;;
10653;SDS011;5375;51.250;6.776;2024-01-10T06:32:02;4.40;;;2.50;;
10653;SDS011;5375;51.250;6.776;2024-01-10T06:34:28;3.43;;;2.80;;
10653;SDS011;5375;51.250;6.776;2024-01-10T06:36:54;3.90;;;2.43;;
10653;SDS011;5375;51.250;6.776;2024-01-10T06:39:20;3.80;;;2.33;;
10653;SDS011;5375;51.250;6.776;2024-01-10T06:41:50;3.23;;;2.40;;
10653;SDS011;5375;51.250;6.776;2024-01-10T06:44:16;3.67;;;2.50;;
10653;SDS011;5375;51.250;6.776;2024-01-10T06:46:45;3.93;;;2.57;;
10653;SDS011;5375;51.250;6.776;2024-01-10T06:49:11;2.93;;;2.40;;
10653;SDS011;5375;51.250;6.776;2024-01-10T06:51:37;4.90;;;2.70;;
10653;SDS011;5375;51.250;6.776;2024-01-10T06:54:04;4.17;;;2.77;;
10653;SDS011;5375;51.250;6.776;2024-01-10T06:56:30;6.53;;;2.53;;
10653;SDS011;5375;51.250;6.776;2024-01-10T06:58:57;3.37;;;2.60;;
10653;SDS011;5375;51.250;6.776;2024-01-10T07:01:24;4.47;;;2.70;;
10653;SDS011;5375;51.250;6.776;2024-01-10T07:03:50;4.30;;;2.70;;
10653;SDS011;5375;51.250;6.776;2024-01-10T07:06:16;4.07;;;2.90;;
10653;SDS011;5375;51.250;6.776;2024-01-10T07:08:43;5.80;;;3.00;;
10653;SDS011;5375;51.250;6.776;2024-01-10T07:11:12;4.20;;;2.50;;
10653;SDS011;5375;51.250;6.776;2024-01-10T07:13:38;4.93;;;2.80;;
10653;SDS011;5375;51.250;6.776;2024-01-10T07:16:04;3.23;;;2.50;;
10653;SDS011;5375;51.250;6.776;2024-01-10T07:18:30;3.87;;;2.50;;
10653;SDS011;5375;51.250;6.776;2024-01-10T07:20:56;3.80;;;2.60;;
10653;SDS011;5375;51.250;6.776;2024-01-10T07:23:22;4.63;;;2.60;;
10653;SDS011;5375;51.250;6.776;2024-01-10T07:25:49;4.27;;;3.03;;
10653;SDS011;5375;51.250;6.776;2024-01-10T07:28:16;4.30;;;2.80;;
10653;SDS011;5375;51.250;6.776;2024-01-10T07:30:43;4.70;;;2.47;;
10653;SDS011;5375;51.250;6.776;2024-01-10T07:33:09;4.40;;;2.60;;
10653;SDS011;5375;51.250;6.776;2024-01-10T07:35:35;4.83;;;2.50;;
10653;SDS011;5375;51.250;6.776;2024-01-10T07:38:01;5.50;;;2.90;;
10653;SDS011;5375;51.250;6.776;2024-01-10T07:40:27;4.43;;;2.50;;
10653;SDS011;5375;51.250;6.776;2024-01-10T07:42:53;4.87;;;2.80;;
10653;SDS011;5375;51.250;6.776;2024-01-10T07:45:20;3.83;;;2.87;;
10653;SDS011;5375;51.250;6.776;2024-01-10T07:47:47;3.97;;;2.47;;
10653;SDS011;5375;51.250;6.776;2024-01-10T07:50:13;3.70;;;2.70;;
10653;SDS011;5375;51.250;6.776;2024-01-10T07:52:39;3.60;;;2.83;;
10653;SDS011;5375;51.250;6.776;2024-01-10T07:55:05;5.10;;;2.90;;
10653;SDS011;5375;51.250;6.776;2024-01-10T07:57:33;4.10;;;2.90;;
10653;SDS011;5375;51.250;6.776;2024-01-10T07:59:59;3.53;;;2.67;;
10653;SDS011;5375;51.250;6.776;2024-01-10T08:02:25;3.80;;;2.77;;
10653;SDS011;5375;51.250;6.776;2024-01-10T08:04:52;3.20;;;2.60;;
10653;SDS011;5375;51.250;6.776;2024-01-10T08:07:18;3.67;;;2.80;;
10653;SDS011;5375;51.250;6.776;2024-01-10T08:09:44;5.47;;;3.00;;
10653;SDS011;5375;51.250;6.776;2024-01-10T08:12:11;4.70;;;2.93;;
10653;SDS011;5375;51.250;6.776;2024-01-10T08:14:37;5.03;;;2.90;;
10653;SDS011;5375;51.250;6.776;2024-01-10T08:17:03;4.20;;;3.00;;
10653;SDS011;5375;51.250;6.776;2024-01-10T08:19:30;3.60;;;2.83;;
10653;SDS011;5375;51.250;6.776;2024-01-10T08:21:56;3.70;;;2.80;;
10653;SDS011;5375;51.250;6.776;2024-01-10T08:24:22;4.30;;;3.00;;
10653;SDS011;5375;51.250;6.776;2024-01-10T08:26:48;4.37;;;2.70;;
10653;SDS011;5375;51.250;6.776;2024-01-10T08:29:17;4.67;;;3.03;;
10653;SDS011;5375;51.250;6.776;2024-01-10T08:31:43;3.67;;;2.80;;
10653;SDS011;5375;51.250;6.776;2024-01-10T08:34:09;5.53;;;3.17;;
10653;SDS011;5375;51.250;6.776;2024-01-10T08:36:35;4.73;;;3.17;;
10653;SDS011;5375;51.250;6.776;2024-01-10T08:39:02;4.23;;;2.60;;
10653;SDS011;5375;51.250;6.776;2024-01-10T08:41:30;4.07;;;2.83;;
10653;SDS011;5375;51.250;6.776;2024-01-10T08:43:56;4.70;;;2.97;;
10653;SDS011;5375;51.250;6.776;2024-01-10T08:46:22;4.60;;;3.13;;
10653;SDS011;5375;51.250;6.776;2024-01-10T08:49:03;5.60;;;3.13;;
10653;SDS011;5375;51.250;6.776;2024-01-10T08:51:29;4.70;;;3.17;;
10653;SDS011;5375;51.250;6.776;2024-01-10T08:53:57;3.63;;;2.73;;
10653;SDS011;5375;51.250;6.776;2024-01-10T08:56:34;4.07;;;2.90;;
10653;SDS011;5375;51.250;6.776;2024-01-10T08:59:00;4.20;;;2.60;;
10653;SDS011;5375;51.250;6.776;2024-01-10T09:01:26;4.77;;;2.73;;
10653;SDS011;5375;51.250;6.776;2024-01-10T09:03:52;3.70;;;2.80;;
10653;SDS011;5375;51.250;6.776;2024-01-10T09:06:21;4.60;;;3.07;;
10653;SDS011;5375;51.250;6.776;2024-01-10T09:08:47;4.93;;;3.00;;
10653;SDS011;5375;51.250;6.776;2024-01-10T09:11:13;4.27;;;2.93;;
10653;SDS011;5375;51.250;6.776;2024-01-10T09:13:39;4.70;;;3.07;;
10653;SDS011;5375;51.250;6.776;2024-01-10T09:16:05;5.70;;;2.73;;
10653;SDS011;5375;51.250;6.776;2024-01-10T09:18:31;4.17;;;2.90;;
10653;SDS011;5375;51.250;6.776;2024-01-10T09:20:57;4.10;;;2.80;;
10653;SDS011;5375;51.250;6.776;2024-01-10T09:23:26;5.13;;;3.03;;
10653;SDS011;5375;51.250;6.776;2024-01-10T09:25:53;4.70;;;2.87;;
10653;SDS011;5375;51.250;6.776;2024-01-10T09:28:19;4.70;;;3.20;;
10653;SDS011;5375;51.250;6.776;2024-01-10T09:30:45;5.90;;;3.23;;
10653;SDS011;5375;51.250;6.776;2024-01-10T09:33:11;3.93;;;2.80;;
10653;SDS011;5375;51.250;6.776;2024-01-10T09:35:43;5.93;;;3.00;;
10653;SDS011;5375;51.250;6.776;2024-01-10T09:38:10;4.83;;;3.00;;
10653;SDS011;5375;51.250;6.776;2024-01-10T09:40:38;4.43;;;3.13;;
10653;SDS011;5375;51.250;6.776;2024-01-10T09:43:06;4.27;;;2.83;;
10653;SDS011;5375;51.250;6.776;2024-01-10T09:45:36;5.83;;;3.50;;
10653;SDS011;5375;51.250;6.776;2024-01-10T09:48:03;4.10;;;3.10;;
10653;SDS011;5375;51.250;6.776;2024-01-10T09:50:31;4.60;;;3.00;;
10653;SDS011;5375;51.250;6.776;2024-01-10T09:53:07;5.10;;;3.10;;
10653;SDS011;5375;51.250;6.776;2024-01-10T09:55:38;4.80;;;3.23;;
10653;SDS011;5375;51.250;6.776;2024-01-10T09:58:07;4.50;;;3.30;;
10653;SDS011;5375;51.250;6.776;2024-01-10T10:00:34;5.13;;;3.40;;
10653;SDS011;5375;51.250;6.776;2024-01-10T10:03:01;5.37;;;3.30;;
10653;SDS011;5375;51.250;6.776;2024-01-10T10:05:27;3.73;;;2.90;;
10653;SDS011;5375;51.250;6.776;2024-01-10T10:07:54;4.97;;;3.00;;
10653;SDS011;5375;51.250;6.776;2024-01-10T10:10:20;4.47;;;3.00;;
10653;SDS011;5375;51.250;6.776;2024-01-10T10:12:47;4.60;;;3.63;;
10653;SDS011;5375;51.250;6.776;2024-01-10T10:15:13;4.77;;;3.03;;
10653;SDS011;5375;51.250;6.776;2024-01-10T10:17:40;5.10;;;3.47;;
10653;SDS011;5375;51.250;6.776;2024-01-10T10:20:12;4.00;;;2.90;;
10653;SDS011;5375;51.250;6.776;2024-01-10T10:22:50;4.63;;;3.40;;
10653;SDS011;5375;51.250;6.776;2024-01-10T10:25:24;4.53;;;3.20;;
10653;SDS011;5375;51.250;6.776;2024-01-10T10:27:51;5.00;;;3.20;;
10653;SDS011;5375;51.250;6.776;2024-01-10T10:30:17;4.97;;;2.90;;
10653;SDS011;5375;51.250;6.776;2024-01-10T10:32:43;4.43;;;3.30;;
10653;SDS011;5375;51.250;6.776;2024-01-10T10:35:10;5.00;;;3.43;;
10653;SDS011;5375;51.250;6.776;2024-01-10T10:37:36;6.10;;;3.60;;
10653;SDS011;5375;51.250;6.776;2024-01-10T10:40:02;4.97;;;3.37;;
10653;SDS011;5375;51.250;6.776;2024-01-10T10:42:28;4.43;;;3.10;;
10653;SDS011;5375;51.250;6.776;2024-01-10T10:44:54;4.80;;;3.50;;
10653;SDS011;5375;51.250;6.776;2024-01-10T10:47:23;4.93;;;3.10;;
10653;SDS011;5375;51.250;6.776;2024-01-10T10:49:52;5.33;;;3.77;;
10653;SDS011;5375;51.250;6.776;2024-01-10T10:52:19;4.73;;;3.53;;
10653;SDS011;5375;51.250;6.776;2024-01-10T10:54:47;4.60;;;3.40;;
10653;SDS011;5375;51.250;6.776;2024-01-10T10:57:13;4.80;;;3.60;;
10653;SDS011;5375;51.250;6.776;2024-01-10T10:59:41;5.43;;;3.40;;
10653;SDS011;5375;51.250;6.776;2024-01-10T11:02:11;5.23;;;3.53;;
10653;SDS011;5375;51.250;6.776;2024-01-10T11:04:40;5.40;;;3.57;;
10653;SDS011;5375;51.250;6.776;2024-01-10T11:07:07;7.17;;;3.30;;
10653;SDS011;5375;51.250;6.776;2024-01-10T11:09:33;5.17;;;3.50;;
10653;SDS011;5375;51.250;6.776;2024-01-10T11:26:13;5.27;;;3.50;;
10653;SDS011;5375;51.250;6.776;2024-01-10T11:28:40;4.87;;;3.40;;
10653;SDS011;5375;51.250;6.776;2024-01-10T11:31:06;5.10;;;3.27;;
10653;SDS011;5375;51.250;6.776;2024-01-10T11:33:34;4.80;;;3.63;;
10653;SDS011;5375;51.250;6.776;2024-01-10T11:38:38;4.40;;;3.37;;
10653;SDS011;5375;51.250;6.776;2024-01-10T11:41:04;5.07;;;3.50;;
10653;SDS011;5375;51.250;6.776;2024-01-10T11:43:30;4.80;;;3.50;;
10653;SDS011;5375;51.250;6.776;2024-01-10T11:46:01;4.70;;;3.30;;
10653;SDS011;5375;51.250;6.776;2024-01-10T11:48:30;5.37;;;3.97;;
10653;SDS011;5375;51.250;6.776;2024-01-10T11:50:57;7.67;;;3.83;;
10653;SDS011;5375;51.250;6.776;2024-01-10T11:53:40;5.83;;;3.70;;
10653;SDS011;5375;51.250;6.776;2024-01-10T11:56:10;6.90;;;3.73;;
10653;SDS011;5375;51.250;6.776;2024-01-10T12:01:38;5.60;;;3.87;;
10653;SDS011;5375;51.250;6.776;2024-01-10T12:04:05;6.80;;;3.97;;
10653;SDS011;5375;51.250;6.776;2024-01-10T12:06:32;5.90;;;3.50;;
10653;SDS011;5375;51.250;6.776;2024-01-10T12:08:58;5.13;;;3.50;;
10653;SDS011;5375;51.250;6.776;2024-01-10T12:11:24;6.30;;;3.80;;
10653;SDS011;5375;51.250;6.776;2024-01-10T12:13:51;4.87;;;3.53;;
10653;SDS011;5375;51.250;6.776;2024-01-10T12:16:17;5.43;;;3.60;;
10653;SDS011;5375;51.250;6.776;2024-01-10T12:18:43;4.90;;;3.50;;
10653;SDS011;5375;51.250;6.776;2024-01-10T12:21:10;6.40;;;4.27;;
10653;SDS011;5375;51.250;6.776;2024-01-10T12:23:37;5.33;;;3.90;;
10653;SDS011;5375;51.250;6.776;2024-01-10T12:26:08;5.83;;;3.77;;
10653;SDS011;5375;51.250;6.776;2024-01-10T12:28:36;5.73;;;3.63;;
10653;SDS011;5375;51.250;6.776;2024-01-10T12:31:03;4.93;;;3.60;;
10653;SDS011;5375;51.250;6.776;2024-01-10T12:33:30;4.80;;;3.67;;
10653;SDS011;5375;51.250;6.776;2024-01-10T12:36:07;6.80;;;3.47;;
10653;SDS011;5375;51.250;6.776;2024-01-10T12:38:34;7.07;;;3.73;;
10653;SDS011;5375;51.250;6.776;2024-01-10T12:41:01;4.93;;;3.77;;
10653;SDS011;5375;51.250;6.776;2024-01-10T12:43:28;6.50;;;3.90;;
10653;SDS011;5375;51.250;6.776;2024-01-10T12:48:29;6.07;;;3.90;;
10653;SDS011;5375;51.250;6.776;2024-01-10T12:50:55;7.27;;;3.73;;
10653;SDS011;5375;51.250;6.776;2024-01-10T12:53:22;6.90;;;3.67;;
10653;SDS011;5375;51.250;6.776;2024-01-10T12:55:48;5.17;;;3.70;;
10653;SDS011;5375;51.250;6.776;2024-01-10T12:58:14;5.60;;;3.53;;
10653;SDS011;5375;51.250;6.776;2024-01-10T13:00:40;6.10;;;3.77;;
10653;SDS011;5375;51.250;6.776;2024-01-10T13:03:06;5.87;;;3.70;;
10653;SDS011;5375;51.250;6.776;2024-01-10T13:05:32;5.00;;;3.17;;
10653;SDS011;5375;51.250;6.776;2024-01-10T13:07:58;7.73;;;4.07;;
10653;SDS011;5375;51.250;6.776;2024-01-10T13:10:24;4.97;;;3.57;;
10653;SDS011;5375;51.250;6.776;2024-01-10T13:12:50;6.17;;;3.93;;
10653;SDS011;5375;51.250;6.776;2024-01-10T13:15:16;4.90;;;3.60;;
10653;SDS011;5375;51.250;6.776;2024-01-10T13:17:43;6.10;;;3.77;;
10653;SDS011;5375;51.250;6.776;2024-01-10T13:20:09;6.13;;;3.80;;
10653;SDS011;5375;51.250;6.776;2024-01-10T13:22:35;6.83;;;3.90;;
10653;SDS011;5375;51.250;6.776;2024-01-10T13:25:01;6.13;;;4.07;;
10653;SDS011;5375;51.250;6.776;2024-01-10T13:27:28;6.20;;;3.53;;
10653;SDS011;5375;51.250;6.776;2024-01-10T13:29:54;6.43;;;3.77;;
10653;SDS011;5375;51.250;6.776;2024-01-10T13:32:20;5.43;;;3.70;;
10653;SDS011;5375;51.250;6.776;2024-01-10T13:34:46;5.23;;;3.97;;
10653;SDS011;5375;51.250;6.776;2024-01-10T13:37:12;5.23;;;3.53;;
10653;SDS011;5375;51.250;6.776;2024-01-10T13:39:40;4.67;;;3.57;;
10653;SDS011;5375;51.250;6.776;2024-01-10T13:42:07;5.00;;;3.60;;
10653;SDS011;5375;51.250;6.776;2024-01-10T13:44:35;6.13;;;3.83;;
10653;SDS011;5375;51.250;6.776;2024-01-10T13:47:02;7.13;;;3.77;;
10653;SDS011;5375;51.250;6.776;2024-01-10T13:49:29;5.53;;;3.57;;
10653;SDS011;5375;51.250;6.776;2024-01-10T13:51:59;5.83;;;3.57;;
10653;SDS011;5375;51.250;6.776;2024-01-10T13:54:25;6.33;;;3.93;;
10653;SDS011;5375;51.250;6.776;2024-01-10T13:56:51;7.13;;;3.63;;
10653;SDS011;5375;51.250;6.776;2024-01-10T13:59:17;4.87;;;3.70;;
10653;SDS011;5375;51.250;6.776;2024-01-10T14:01:43;5.60;;;3.83;;
10653;SDS011;5375;51.250;6.776;2024-01-10T14:04:09;5.10;;;3.70;;
10653;SDS011;5375;51.250;6.776;2024-01-10T14:06:35;4.97;;;3.60;;
10653;SDS011;5375;51.250;6.776;2024-01-10T14:09:01;5.67;;;3.87;;
10653;SDS011;5375;51.250;6.776;2024-01-10T14:11:28;5.53;;;4.03;;
10653;SDS011;5375;51.250;6.776;2024-01-10T14:13:58;5.27;;;3.87;;
10653;SDS011;5375;51.250;6.776;2024-01-10T14:16:24;5.67;;;3.57;;
10653;SDS011;5375;51.250;6.776;2024-01-10T14:18:50;5.37;;;3.43;;
10653;SDS011;5375;51.250;6.776;2024-01-10T14:21:16;6.50;;;3.90;;
10653;SDS011;5375;51.250;6.776;2024-01-10T14:23:43;5.30;;;3.93;;
10653;SDS011;5375;51.250;6.776;2024-01-10T14:26:09;7.17;;;4.03;;
10653;SDS011;5375;51.250;6.776;2024-01-10T14:28:35;5.37;;;4.00;;
10653;SDS011;5375;51.250;6.776;2024-01-10T14:31:04;5.47;;;3.90;;
10653;SDS011;5375;51.250;6.776;2024-01-10T14:33:30;5.33;;;3.80;;
10653;SDS011;5375;51.250;6.776;2024-01-10T14:35:56;5.47;;;3.87;;
10653;SDS011;5375;51.250;6.776;2024-01-10T14:38:22;5.90;;;4.27;;
10653;SDS011;5375;51.250;6.776;2024-01-10T14:40:48;5.50;;;3.97;;
10653;SDS011;5375;51.250;6.776;2024-01-10T14:43:14;5.53;;;3.77;;
10653;SDS011;5375;51.250;6.776;2024-01-10T14:45:40;5.23;;;4.07;;
10653;SDS011;5375;51.250;6.776;2024-01-10T14:48:06;6.40;;;4.33;;
10653;SDS011;5375;51.250;6.776;2024-01-10T14:50:32;5.40;;;4.00;;
10653;SDS011;5375;51.250;6.776;2024-01-10T14:52:58;5.53;;;4.10;;
10653;SDS011;5375;51.250;6.776;2024-01-10T14:55:24;5.43;;;3.77;;
10653;SDS011;5375;51.250;6.776;2024-01-10T14:57:50;5.83;;;4.00;;
10653;SDS011;5375;51.250;6.776;2024-01-10T15:00:16;6.73;;;4.27;;
10653;SDS011;5375;51.250;6.776;2024-01-10T15:02:43;5.60;;;3.83;;
10653;SDS011;5375;51.250;6.776;2024-01-10T15:05:10;6.17;;;4.00;;
10653;SDS011;5375;51.250;6.776;2024-01-10T15:07:37;6.67;;;4.27;;
10653;SDS011;5375;51.250;6.776;2024-01-10T15:10:04;6.37;;;3.97;;
10653;SDS011;5375;51.250;6.776;2024-01-10T15:12:30;6.40;;;3.90;;
10653;SDS011;5375;51.250;6.776;2024-01-10T15:14:56;6.30;;;4.30;;
10653;SDS011;5375;51.250;6.776;2024-01-10T15:17:25;5.60;;;4.40;;
10653;SDS011;5375;51.250;6.776;2024-01-10T15:19:51;7.77;;;4.47;;
10653;SDS011;5375;51.250;6.776;2024-01-10T15:22:20;5.00;;;3.90;;